createdAt,value
2018-05-19T00:00:28.272Z,11.70
2018-05-19T00:01:28.254Z,11.60
2018-05-19T00:02:28.235Z,11.70
2018-05-19T00:03:28.218Z,11.52
2018-05-19T00:04:28.199Z,11.58
2018-05-19T00:05:28.249Z,11.55
2018-05-19T00:06:28.178Z,11.49
2018-05-19T00:07:28.148Z,11.38
2018-05-19T00:08:28.139Z,11.43
2018-05-19T00:09:28.112Z,11.26
2018-05-19T00:10:28.098Z,11.30
2018-05-19T00:11:28.075Z,11.23
2018-05-19T00:12:28.059Z,11.35
2018-05-19T00:13:28.043Z,11.44
2018-05-19T00:14:28.024Z,11.38
2018-05-19T00:15:28.004Z,11.40
2018-05-19T00:16:27.987Z,11.37
2018-05-19T00:17:27.970Z,11.44
2018-05-19T00:18:27.957Z,11.44
2018-05-19T00:19:27.934Z,11.40
2018-05-19T00:20:27.928Z,11.44
2018-05-19T00:21:27.899Z,11.37
2018-05-19T00:22:27.887Z,11.31
2018-05-19T00:23:27.863Z,11.23
2018-05-19T00:24:27.847Z,11.33
2018-05-19T00:25:27.978Z,11.22
2018-05-19T00:26:27.808Z,11.27
2018-05-19T00:27:27.793Z,11.19
2018-05-19T00:28:27.776Z,11.18
2018-05-19T00:29:27.756Z,11.16
2018-05-19T00:30:27.739Z,11.19
2018-05-19T00:31:27.721Z,11.12
2018-05-19T00:32:27.747Z,11.13
2018-05-19T00:33:27.684Z,11.05
2018-05-19T00:34:27.665Z,11.08
2018-05-19T00:35:27.649Z,11.15
2018-05-19T00:36:27.630Z,11.04
2018-05-19T00:37:27.615Z,11.20
2018-05-19T00:38:27.601Z,11.26
2018-05-19T00:39:27.578Z,11.26
2018-05-19T00:40:27.558Z,11.23
2018-05-19T00:41:27.548Z,11.19
2018-05-19T00:42:27.520Z,11.20
2018-05-19T00:43:27.503Z,11.18
2018-05-19T00:44:27.492Z,11.20
2018-05-19T00:45:27.467Z,11.20
2018-05-19T00:46:27.457Z,11.20
2018-05-19T00:47:27.433Z,11.10
2018-05-19T00:48:27.413Z,11.12
2018-05-19T00:49:27.395Z,11.20
2018-05-19T00:50:27.380Z,11.19
2018-05-19T00:51:27.361Z,11.23
2018-05-19T00:52:27.342Z,11.26
2018-05-19T00:53:27.326Z,11.13
2018-05-19T00:54:27.307Z,11.15
2018-05-19T00:55:27.289Z,11.16
2018-05-19T00:56:27.280Z,11.15
2018-05-19T00:57:27.261Z,11.02
2018-05-19T00:58:27.333Z,11.13
2018-05-19T00:59:27.218Z,11.10
2018-05-19T01:00:27.201Z,11.01
2018-05-19T01:01:27.184Z,11.01
2018-05-19T01:02:27.164Z,11.07
2018-05-19T01:03:27.151Z,11.05
2018-05-19T01:04:27.127Z,11.08
2018-05-19T01:05:27.116Z,11.13
2018-05-19T01:06:27.088Z,11.12
2018-05-19T01:07:27.071Z,11.00
2018-05-19T01:08:27.057Z,11.04
2018-05-19T01:09:27.037Z,11.10
2018-05-19T01:10:27.017Z,11.08
2018-05-19T01:11:26.998Z,11.08
2018-05-19T01:12:26.984Z,11.02
2018-05-19T01:13:26.963Z,11.12
2018-05-19T01:14:26.944Z,11.10
2018-05-19T01:15:26.925Z,11.12
2018-05-19T01:16:26.909Z,11.13
2018-05-19T01:17:26.890Z,11.19
2018-05-19T01:18:26.873Z,11.10
2018-05-19T01:19:26.864Z,11.15
2018-05-19T01:20:26.836Z,11.18
2018-05-19T01:21:26.825Z,11.05
2018-05-19T01:22:26.800Z,11.10
2018-05-19T01:23:26.780Z,11.04
2018-05-19T01:24:26.763Z,10.95
2018-05-19T01:25:26.745Z,10.89
2018-05-19T01:26:26.726Z,10.82
2018-05-19T01:27:26.709Z,10.79
2018-05-19T01:28:26.689Z,10.68
2018-05-19T01:29:26.675Z,10.69
2018-05-19T01:30:26.661Z,10.76
2018-05-19T01:31:26.638Z,10.75
2018-05-19T01:32:26.619Z,10.61
2018-05-19T01:33:26.604Z,10.58
2018-05-19T01:34:26.580Z,10.71
2018-05-19T01:35:26.565Z,10.77
2018-05-19T01:36:26.545Z,10.83
2018-05-19T01:37:26.526Z,10.84
2018-05-19T01:38:26.507Z,10.90
2018-05-19T01:39:26.490Z,10.80
2018-05-19T01:40:26.471Z,10.92
2018-05-19T01:41:26.455Z,10.89
2018-05-19T01:42:26.442Z,10.83
2018-05-19T01:43:26.417Z,10.87
2018-05-19T01:44:26.399Z,10.90
2018-05-19T01:45:26.381Z,10.83
2018-05-19T01:46:26.364Z,10.79
2018-05-19T01:47:26.346Z,10.72
2018-05-19T01:48:26.325Z,10.68
2018-05-19T01:49:26.309Z,10.76
2018-05-19T01:50:26.289Z,10.71
2018-05-19T01:51:26.271Z,10.72
2018-05-19T01:52:26.255Z,10.76
2018-05-19T01:53:26.236Z,10.84
2018-05-19T01:54:26.367Z,10.87
2018-05-19T01:55:26.198Z,11.05
2018-05-19T01:56:26.179Z,10.86
2018-05-19T01:57:26.165Z,10.86
2018-05-19T01:58:26.143Z,10.84
2018-05-19T01:59:26.126Z,10.80
2018-05-19T02:00:26.110Z,10.84
2018-05-19T02:01:26.091Z,10.84
2018-05-19T02:02:26.070Z,10.86
2018-05-19T02:03:26.055Z,10.71
2018-05-19T02:04:26.036Z,10.71
2018-05-19T02:05:26.025Z,10.75
2018-05-19T02:06:26.004Z,10.72
2018-05-19T02:07:25.987Z,10.72
2018-05-19T02:08:25.963Z,10.72
2018-05-19T02:09:25.952Z,10.79
2018-05-19T02:10:25.927Z,10.72
2018-05-19T02:11:25.905Z,10.59
2018-05-19T02:12:25.887Z,10.59
2018-05-19T02:13:25.870Z,10.55
2018-05-19T02:14:25.851Z,10.64
2018-05-19T02:15:25.832Z,10.49
2018-05-19T02:16:25.825Z,10.45
2018-05-19T02:17:25.799Z,10.42
2018-05-19T02:18:25.778Z,10.43
2018-05-19T02:19:25.764Z,10.46
2018-05-19T02:20:25.745Z,10.51
2018-05-19T02:21:25.723Z,10.58
2018-05-19T02:22:25.704Z,10.55
2018-05-19T02:23:25.693Z,10.59
2018-05-19T02:24:25.677Z,10.61
2018-05-19T02:25:25.651Z,10.58
2018-05-19T02:26:25.636Z,10.65
2018-05-19T02:27:25.612Z,10.61
2018-05-19T02:28:25.595Z,10.61
2018-05-19T02:29:25.576Z,10.64
2018-05-19T02:30:25.556Z,10.67
2018-05-19T02:31:25.539Z,10.58
2018-05-19T02:32:25.520Z,10.61
2018-05-19T02:33:25.608Z,10.72
2018-05-19T02:34:25.483Z,10.72
2018-05-19T02:35:25.465Z,10.75
2018-05-19T02:36:25.448Z,10.79
2018-05-19T02:37:25.428Z,10.75
2018-05-19T02:38:25.408Z,10.71
2018-05-19T02:39:25.390Z,10.77
2018-05-19T02:40:25.372Z,10.68
2018-05-19T02:41:25.354Z,10.61
2018-05-19T02:42:25.336Z,10.53
2018-05-19T02:43:25.316Z,10.36
2018-05-19T02:44:25.299Z,10.27
2018-05-19T02:45:25.280Z,10.18
2018-05-19T02:46:25.261Z,10.17
2018-05-19T02:47:25.243Z,10.15
2018-05-19T02:48:25.224Z,10.13
2018-05-19T02:49:25.215Z,10.24
2018-05-19T02:50:25.185Z,10.23
2018-05-19T02:51:25.167Z,10.23
2018-05-19T02:52:25.300Z,10.24
2018-05-19T02:53:25.132Z,10.41
2018-05-19T02:54:25.114Z,10.41
2018-05-19T02:55:25.098Z,10.51
2018-05-19T02:56:25.076Z,10.45
2018-05-19T02:57:25.071Z,10.53
2018-05-19T02:58:25.040Z,10.57
2018-05-19T02:59:25.021Z,10.59
2018-05-19T03:00:25.001Z,10.58
2018-05-19T03:01:24.986Z,10.61
2018-05-19T03:02:24.992Z,10.55
2018-05-19T03:03:24.946Z,10.51
2018-05-19T03:04:24.936Z,10.65
2018-05-19T03:05:24.911Z,10.71
2018-05-19T03:06:24.891Z,10.69
2018-05-19T03:07:24.881Z,10.67
2018-05-19T03:08:24.855Z,10.46
2018-05-19T03:09:24.837Z,10.51
2018-05-19T03:10:24.816Z,10.48
2018-05-19T03:11:24.810Z,10.45
2018-05-19T03:12:24.781Z,10.38
2018-05-19T03:13:24.765Z,10.51
2018-05-19T03:14:24.746Z,10.57
2018-05-19T03:15:24.724Z,10.51
2018-05-19T03:16:24.711Z,10.51
2018-05-19T03:17:24.688Z,10.48
2018-05-19T03:18:24.679Z,10.49
2018-05-19T03:19:24.651Z,10.49
2018-05-19T03:20:24.634Z,10.36
2018-05-19T03:21:24.618Z,10.34
2018-05-19T03:22:24.595Z,10.27
2018-05-19T03:23:24.579Z,10.34
2018-05-19T03:24:24.561Z,10.33
2018-05-19T03:25:24.540Z,10.33
2018-05-19T03:26:24.521Z,10.28
2018-05-19T03:27:24.504Z,10.34
2018-05-19T03:28:24.491Z,10.30
2018-05-19T03:29:24.467Z,10.28
2018-05-19T03:30:24.447Z,10.48
2018-05-19T03:31:24.435Z,10.49
2018-05-19T03:32:24.412Z,10.59
2018-05-19T03:33:24.394Z,10.72
2018-05-19T03:34:24.373Z,10.71
2018-05-19T03:35:24.360Z,10.75
2018-05-19T03:36:24.342Z,10.69
2018-05-19T03:37:24.321Z,10.82
2018-05-19T03:38:24.304Z,10.83
2018-05-19T03:39:24.282Z,10.72
2018-05-19T03:40:24.265Z,10.58
2018-05-19T03:41:24.247Z,10.67
2018-05-19T03:42:24.230Z,10.64
2018-05-19T03:43:24.208Z,10.72
2018-05-19T03:44:24.189Z,10.72
2018-05-19T03:45:24.175Z,10.62
2018-05-19T03:46:24.159Z,10.76
2018-05-19T03:47:24.137Z,10.72
2018-05-19T03:48:24.120Z,10.59
2018-05-19T03:49:24.101Z,10.61
2018-05-19T03:50:24.079Z,10.57
2018-05-19T03:51:24.061Z,10.58
2018-05-19T03:52:24.043Z,10.53
2018-05-19T03:53:24.025Z,10.46
2018-05-19T03:54:24.057Z,10.49
2018-05-19T03:55:23.987Z,10.55
2018-05-19T03:56:23.970Z,10.55
2018-05-19T03:57:23.953Z,10.51
2018-05-19T03:58:23.935Z,10.43
2018-05-19T03:59:23.924Z,10.42
2018-05-19T04:00:23.896Z,10.55
2018-05-19T04:01:23.889Z,10.38
2018-05-19T04:02:23.860Z,10.53
2018-05-19T04:03:23.842Z,10.45
2018-05-19T04:04:23.823Z,10.46
2018-05-19T04:05:23.809Z,10.46
2018-05-19T04:06:23.787Z,10.55
2018-05-19T04:07:23.769Z,10.58
2018-05-19T04:08:23.760Z,10.76
2018-05-19T04:09:23.735Z,10.79
2018-05-19T04:10:23.713Z,10.86
2018-05-19T04:11:23.694Z,10.89
2018-05-19T04:12:23.678Z,10.92
2018-05-19T04:13:23.663Z,10.98
2018-05-19T04:14:23.640Z,10.97
2018-05-19T04:15:23.622Z,10.98
2018-05-19T04:16:23.604Z,10.89
2018-05-19T04:17:23.586Z,10.71
2018-05-19T04:18:23.567Z,10.75
2018-05-19T04:19:23.558Z,10.59
2018-05-19T04:20:23.533Z,10.62
2018-05-19T04:21:23.563Z,10.69
2018-05-19T04:22:23.496Z,10.77
2018-05-19T04:23:23.514Z,10.79
2018-05-19T04:24:23.460Z,10.82
2018-05-19T04:25:23.480Z,10.77
2018-05-19T04:26:23.422Z,10.75
2018-05-19T04:27:23.407Z,10.84
2018-05-19T04:28:23.383Z,10.83
2018-05-19T04:29:23.369Z,10.79
2018-05-19T04:30:23.349Z,10.79
2018-05-19T04:31:23.329Z,10.69
2018-05-19T04:32:23.313Z,10.76
2018-05-19T04:33:23.298Z,10.64
2018-05-19T04:34:23.274Z,10.79
2018-05-19T04:35:23.257Z,10.90
2018-05-19T04:36:23.238Z,10.92
2018-05-19T04:37:23.227Z,10.95
2018-05-19T04:38:23.214Z,11.08
2018-05-19T04:39:23.184Z,11.02
2018-05-19T04:40:23.168Z,11.23
2018-05-19T04:41:23.152Z,11.18
2018-05-19T04:42:23.129Z,11.02
2018-05-19T04:43:23.113Z,11.10
2018-05-19T04:44:23.094Z,11.08
2018-05-19T04:45:23.084Z,11.07
2018-05-19T04:46:23.059Z,11.15
2018-05-19T04:47:23.039Z,11.20
2018-05-19T04:48:23.023Z,11.20
2018-05-19T04:49:23.004Z,11.38
2018-05-19T04:50:22.988Z,11.38
2018-05-19T04:51:22.970Z,11.33
2018-05-19T04:52:22.954Z,11.37
2018-05-19T04:53:22.933Z,11.41
2018-05-19T04:54:22.915Z,11.34
2018-05-19T04:55:22.939Z,11.23
2018-05-19T04:56:22.879Z,11.34
2018-05-19T04:57:22.870Z,11.43
2018-05-19T04:58:22.843Z,11.40
2018-05-19T04:59:22.834Z,11.48
2018-05-19T05:00:22.808Z,11.52
2018-05-19T05:01:22.799Z,11.53
2018-05-19T05:02:22.774Z,11.58
2018-05-19T05:03:22.757Z,11.62
2018-05-19T05:04:22.738Z,11.76
2018-05-19T05:05:22.723Z,11.76
2018-05-19T05:06:22.701Z,11.76
2018-05-19T05:07:22.686Z,11.80
2018-05-19T05:08:22.668Z,11.74
2018-05-19T05:09:22.657Z,11.78
2018-05-19T05:10:22.633Z,11.80
2018-05-19T05:11:22.616Z,11.74
2018-05-19T05:12:22.598Z,11.81
2018-05-19T05:13:22.582Z,11.88
2018-05-19T05:14:22.563Z,11.68
2018-05-19T05:15:22.547Z,11.73
2018-05-19T05:16:22.528Z,11.71
2018-05-19T05:17:22.517Z,11.85
2018-05-19T05:18:22.496Z,11.88
2018-05-19T05:19:22.490Z,12.05
2018-05-19T05:20:22.461Z,11.95
2018-05-19T05:21:22.444Z,12.03
2018-05-19T05:22:22.432Z,12.10
2018-05-19T05:23:22.566Z,12.07
2018-05-19T05:24:22.391Z,12.05
2018-05-19T05:25:22.375Z,12.02
2018-05-19T05:26:22.362Z,11.91
2018-05-19T05:27:22.340Z,11.95
2018-05-19T05:28:22.327Z,12.12
2018-05-19T05:29:22.310Z,12.15
2018-05-19T05:30:22.300Z,12.30
2018-05-19T05:31:22.275Z,12.43
2018-05-19T05:32:22.259Z,12.50
2018-05-19T05:33:22.243Z,12.43
2018-05-19T05:34:22.227Z,12.50
2018-05-19T05:35:22.208Z,12.62
2018-05-19T05:36:22.193Z,12.63
2018-05-19T05:37:22.176Z,12.61
2018-05-19T05:38:22.162Z,12.58
2018-05-19T05:39:22.141Z,12.62
2018-05-19T05:40:22.126Z,12.66
2018-05-19T05:41:22.114Z,12.66
2018-05-19T05:42:22.094Z,12.61
2018-05-19T05:43:22.077Z,12.70
2018-05-19T05:44:22.061Z,12.80
2018-05-19T05:45:22.061Z,12.66
2018-05-19T05:46:22.033Z,12.86
2018-05-19T05:47:22.013Z,12.84
2018-05-19T05:48:21.996Z,12.87
2018-05-19T05:49:21.980Z,13.01
2018-05-19T05:50:21.964Z,12.84
2018-05-19T05:51:21.949Z,12.72
2018-05-19T05:52:21.932Z,12.73
2018-05-19T05:53:21.916Z,12.78
2018-05-19T05:54:21.900Z,12.76
2018-05-19T05:55:21.890Z,12.76
2018-05-19T05:56:21.870Z,12.87
2018-05-19T05:57:21.856Z,12.88
2018-05-19T05:58:21.839Z,12.87
2018-05-19T05:59:21.829Z,12.90
2018-05-19T06:00:21.808Z,13.06
2018-05-19T06:01:21.790Z,13.11
2018-05-19T06:02:21.778Z,13.24
2018-05-19T06:03:21.760Z,13.20
2018-05-19T06:04:21.752Z,13.40
2018-05-19T06:05:21.772Z,13.54
2018-05-19T06:06:21.732Z,13.61
2018-05-19T06:07:21.698Z,13.61
2018-05-19T06:08:21.687Z,13.58
2018-05-19T06:09:21.669Z,13.71
2018-05-19T06:10:21.653Z,13.79
2018-05-19T06:11:21.637Z,13.78
2018-05-19T06:12:21.743Z,14.16
2018-05-19T06:13:21.608Z,14.20
2018-05-19T06:14:21.592Z,14.38
2018-05-19T06:15:21.576Z,14.34
2018-05-19T06:16:21.562Z,14.33
2018-05-19T06:17:21.552Z,14.43
2018-05-19T06:18:21.532Z,14.41
2018-05-19T06:19:21.517Z,14.40
2018-05-19T06:20:21.504Z,14.52
2018-05-19T06:21:21.490Z,14.55
2018-05-19T06:22:21.475Z,14.96
2018-05-19T06:23:21.459Z,14.97
2018-05-19T06:24:21.447Z,15.63
2018-05-19T06:25:21.434Z,15.90
2018-05-19T06:26:21.418Z,15.99
2018-05-19T06:27:21.405Z,15.63
2018-05-19T06:28:21.391Z,15.17
2018-05-19T06:29:21.379Z,15.02
2018-05-19T06:30:21.373Z,14.85
2018-05-19T06:31:21.365Z,14.74
2018-05-19T06:32:21.342Z,15.02
2018-05-19T06:33:21.328Z,15.22
2018-05-19T06:34:21.313Z,15.18
2018-05-19T06:35:21.302Z,14.93
2018-05-19T06:36:21.286Z,14.73
2018-05-19T06:37:21.289Z,14.51
2018-05-19T06:38:21.263Z,14.28
2018-05-19T06:39:21.248Z,14.36
2018-05-19T06:40:21.234Z,14.56
2018-05-19T06:41:21.235Z,14.51
2018-05-19T06:42:21.209Z,14.41
2018-05-19T06:43:21.212Z,14.44
2018-05-19T06:44:21.183Z,14.41
2018-05-19T06:45:21.179Z,14.52
2018-05-19T06:46:21.161Z,14.55
2018-05-19T06:47:21.145Z,14.58
2018-05-19T06:48:21.186Z,14.61
2018-05-19T06:49:21.121Z,14.71
2018-05-19T06:50:21.105Z,14.61
2018-05-19T06:51:21.093Z,14.87
2018-05-19T06:52:21.090Z,15.00
2018-05-19T06:53:21.067Z,15.17
2018-05-19T06:54:21.053Z,14.99
2018-05-19T06:55:21.040Z,14.85
2018-05-19T06:56:21.027Z,14.90
2018-05-19T06:57:21.016Z,14.90
2018-05-19T06:58:21.006Z,14.97
2018-05-19T06:59:20.990Z,15.10
2018-05-19T07:00:20.982Z,15.19
2018-05-19T07:01:20.965Z,15.26
2018-05-19T07:02:20.952Z,15.26
2018-05-19T07:03:20.945Z,15.26
2018-05-19T07:04:20.927Z,15.41
2018-05-19T07:05:20.914Z,15.59
2018-05-19T07:06:20.900Z,15.23
2018-05-19T07:07:20.888Z,14.99
2018-05-19T07:08:20.881Z,14.99
2018-05-19T07:09:20.872Z,15.12
2018-05-19T07:10:20.873Z,15.36
2018-05-19T07:11:20.838Z,15.59
2018-05-19T07:12:20.829Z,15.69
2018-05-19T07:13:20.813Z,15.73
2018-05-19T07:14:20.802Z,16.08
2018-05-19T07:15:20.789Z,16.26
2018-05-19T07:16:20.779Z,16.36
2018-05-19T07:17:20.765Z,16.32
2018-05-19T07:18:20.753Z,16.36
2018-05-19T07:19:20.743Z,16.46
2018-05-19T07:20:20.732Z,16.69
2018-05-19T07:21:20.727Z,16.73
2018-05-19T07:22:20.718Z,16.74
2018-05-19T07:23:20.697Z,16.77
2018-05-19T07:24:20.687Z,16.62
2018-05-19T07:25:20.676Z,16.49
2018-05-19T07:26:20.666Z,16.46
2018-05-19T07:27:20.657Z,16.64
2018-05-19T07:28:20.647Z,16.58
2018-05-19T07:29:20.639Z,16.77
2018-05-19T07:30:20.631Z,16.68
2018-05-19T07:31:20.617Z,16.66
2018-05-19T07:32:20.608Z,16.66
2018-05-19T07:33:20.603Z,16.77
2018-05-19T07:34:20.587Z,16.83
2018-05-19T07:35:20.576Z,16.76
2018-05-19T07:36:20.568Z,16.80
2018-05-19T07:37:20.567Z,16.79
2018-05-19T07:38:20.547Z,16.77
2018-05-19T07:39:20.541Z,16.73
2018-05-19T07:40:20.529Z,17.16
2018-05-19T07:41:20.530Z,17.52
2018-05-19T07:42:20.513Z,17.56
2018-05-19T07:43:20.499Z,17.47
2018-05-19T07:44:20.490Z,17.27
2018-05-19T07:45:20.483Z,17.10
2018-05-19T07:46:20.469Z,16.50
2018-05-19T07:47:20.461Z,16.22
2018-05-19T07:48:20.450Z,16.05
2018-05-19T07:49:20.447Z,16.03
2018-05-19T07:50:20.437Z,16.17
2018-05-19T07:51:20.420Z,16.08
2018-05-19T07:52:20.413Z,16.10
2018-05-19T07:53:20.400Z,16.02
2018-05-19T07:54:20.390Z,16.05
2018-05-19T07:55:20.386Z,15.84
2018-05-19T07:56:20.383Z,15.57
2018-05-19T07:57:20.458Z,15.26
2018-05-19T07:58:20.428Z,15.19
2018-05-19T07:59:20.339Z,15.05
2018-05-19T08:00:20.330Z,15.00
2018-05-19T08:01:20.318Z,15.00
2018-05-19T08:02:20.304Z,15.00
2018-05-19T08:03:20.297Z,15.04
2018-05-19T08:04:20.301Z,15.14
2018-05-19T08:05:20.275Z,15.12
2018-05-19T08:06:20.259Z,15.02
2018-05-19T08:07:20.247Z,15.04
2018-05-19T08:08:20.238Z,14.89
2018-05-19T08:09:20.229Z,14.78
2018-05-19T08:10:20.215Z,14.90
2018-05-19T08:11:20.213Z,14.96
2018-05-19T08:12:20.211Z,15.08
2018-05-19T08:13:20.184Z,15.07
2018-05-19T08:14:20.168Z,15.04
2018-05-19T08:15:20.159Z,15.11
2018-05-19T08:16:20.150Z,15.22
2018-05-19T08:17:20.137Z,15.39
2018-05-19T08:18:20.125Z,15.50
2018-05-19T08:19:20.120Z,15.66
2018-05-19T08:20:20.187Z,15.76
2018-05-19T08:21:20.090Z,15.91
2018-05-19T08:22:20.077Z,15.80
2018-05-19T08:23:20.066Z,15.85
2018-05-19T08:24:20.055Z,15.81
2018-05-19T08:25:20.045Z,15.92
2018-05-19T08:26:20.037Z,15.90
2018-05-19T08:27:20.023Z,15.83
2018-05-19T08:28:20.008Z,15.76
2018-05-19T08:29:20.001Z,15.73
2018-05-19T08:30:19.988Z,15.83
2018-05-19T08:31:19.975Z,15.96
2018-05-19T08:32:19.970Z,16.00
2018-05-19T08:33:19.951Z,16.25
2018-05-19T08:34:19.941Z,16.32
2018-05-19T08:35:19.932Z,16.25
2018-05-19T08:36:19.926Z,16.50
2018-05-19T08:37:19.908Z,16.49
2018-05-19T08:38:19.896Z,16.62
2018-05-19T08:39:19.883Z,16.79
2018-05-19T08:40:19.877Z,16.80
2018-05-19T08:41:19.956Z,16.83
2018-05-19T08:42:19.849Z,16.80
2018-05-19T08:43:19.836Z,16.99
2018-05-19T08:44:19.832Z,16.80
2018-05-19T08:45:19.824Z,16.80
2018-05-19T08:46:19.810Z,16.95
2018-05-19T08:47:19.796Z,16.84
2018-05-19T08:48:19.780Z,16.65
2018-05-19T08:49:19.770Z,16.43
2018-05-19T08:50:19.758Z,16.36
2018-05-19T08:51:19.747Z,16.18
2018-05-19T08:52:19.754Z,15.96
2018-05-19T08:53:19.759Z,15.92
2018-05-19T08:54:19.714Z,15.96
2018-05-19T08:55:19.721Z,16.08
2018-05-19T08:56:19.692Z,16.08
2018-05-19T08:57:19.684Z,16.16
2018-05-19T08:58:19.811Z,16.36
2018-05-19T08:59:19.657Z,16.32
2018-05-19T09:00:19.647Z,16.17
2018-05-19T09:01:19.634Z,16.21
2018-05-19T09:02:19.624Z,16.36
2018-05-19T09:03:19.612Z,16.62
2018-05-19T09:04:19.602Z,17.02
2018-05-19T09:05:19.592Z,17.07
2018-05-19T09:06:19.578Z,17.22
2018-05-19T09:07:19.569Z,17.30
2018-05-19T09:08:19.573Z,17.42
2018-05-19T09:09:19.550Z,17.42
2018-05-19T09:10:19.538Z,17.49
2018-05-19T09:11:19.525Z,17.79
2018-05-19T09:12:19.513Z,17.97
2018-05-19T09:13:19.504Z,18.45
2018-05-19T09:14:19.490Z,18.78
2018-05-19T09:15:19.481Z,18.67
2018-05-19T09:16:19.486Z,18.97
2018-05-19T09:17:19.460Z,18.86
2018-05-19T09:18:19.449Z,19.09
2018-05-19T09:19:19.442Z,18.98
2018-05-19T09:20:19.428Z,18.97
2018-05-19T09:21:19.421Z,19.08
2018-05-19T09:22:19.404Z,18.88
2018-05-19T09:23:19.562Z,18.96
2018-05-19T09:24:19.382Z,18.78
2018-05-19T09:25:19.373Z,18.64
2018-05-19T09:26:19.363Z,18.57
2018-05-19T09:27:19.353Z,18.58
2018-05-19T09:28:19.342Z,18.61
2018-05-19T09:29:19.334Z,19.23
2018-05-19T09:30:19.339Z,19.34
2018-05-19T09:31:19.315Z,18.98
2018-05-19T09:32:19.310Z,18.98
2018-05-19T09:33:19.313Z,19.04
2018-05-19T09:34:19.283Z,19.04
2018-05-19T09:35:19.273Z,19.08
2018-05-19T09:36:19.284Z,19.24
2018-05-19T09:37:19.254Z,19.23
2018-05-19T09:38:19.246Z,19.00
2018-05-19T09:39:19.244Z,18.98
2018-05-19T09:40:19.243Z,19.22
2018-05-19T09:41:19.223Z,19.64
2018-05-19T09:42:19.208Z,19.96
2018-05-19T09:43:19.200Z,20.18
2018-05-19T09:44:19.192Z,20.42
2018-05-19T09:45:19.183Z,19.57
2018-05-19T09:46:19.177Z,19.42
2018-05-19T09:47:19.233Z,19.16
2018-05-19T09:48:19.157Z,18.97
2018-05-19T09:49:19.151Z,18.91
2018-05-19T09:50:19.147Z,19.12
2018-05-19T09:51:19.147Z,19.30
2018-05-19T09:52:19.123Z,20.18
2018-05-19T09:53:19.116Z,19.48
2018-05-19T09:54:19.111Z,18.71
2018-05-19T09:55:19.098Z,18.30
2018-05-19T09:56:19.090Z,18.30
2018-05-19T09:57:19.084Z,18.11
2018-05-19T09:58:19.073Z,18.13
2018-05-19T09:59:19.077Z,18.39
2018-05-19T10:00:19.062Z,19.01
2018-05-19T10:01:19.045Z,18.81
2018-05-19T10:02:19.056Z,18.79
2018-05-19T10:03:19.076Z,18.52
2018-05-19T10:04:19.025Z,18.46
2018-05-19T10:05:19.008Z,18.49
2018-05-19T10:06:18.997Z,18.49
2018-05-19T10:07:19.021Z,18.76
2018-05-19T10:08:18.990Z,18.76
2018-05-19T10:09:18.978Z,18.55
2018-05-19T10:10:18.960Z,18.55
2018-05-19T10:11:18.960Z,18.46
2018-05-19T10:12:18.941Z,18.27
2018-05-19T10:13:18.933Z,18.23
2018-05-19T10:14:18.932Z,18.08
2018-05-19T10:15:18.937Z,18.03
2018-05-19T10:16:18.912Z,18.15
2018-05-19T10:17:18.918Z,18.19
2018-05-19T10:18:18.901Z,18.83
2018-05-19T10:19:18.877Z,19.92
2018-05-19T10:20:18.873Z,20.50
2018-05-19T10:21:18.855Z,21.35
2018-05-19T10:22:18.855Z,21.96
2018-05-19T10:23:18.854Z,22.53
2018-05-19T10:24:18.833Z,22.78
2018-05-19T10:25:18.830Z,22.31
2018-05-19T10:26:18.819Z,22.15
2018-05-19T10:27:18.813Z,21.22
2018-05-19T10:28:18.898Z,20.40
2018-05-19T10:29:18.808Z,20.10
2018-05-19T10:30:18.800Z,19.72
2018-05-19T10:31:18.793Z,19.63
2018-05-19T10:32:18.787Z,19.59
2018-05-19T10:33:18.826Z,19.66
2018-05-19T10:34:18.780Z,19.94
2018-05-19T10:35:18.770Z,19.49
2018-05-19T10:36:18.763Z,19.62
2018-05-19T10:37:18.767Z,19.92
2018-05-19T10:38:18.757Z,19.94
2018-05-19T10:39:18.744Z,20.42
2018-05-19T10:40:18.751Z,20.96
2018-05-19T10:41:18.746Z,19.93
2018-05-19T10:42:18.727Z,19.37
2018-05-19T10:43:18.722Z,19.23
2018-05-19T10:44:18.716Z,19.29
2018-05-19T10:45:18.712Z,19.27
2018-05-19T10:46:18.706Z,19.29
2018-05-19T10:47:18.715Z,19.42
2018-05-19T10:48:18.692Z,19.35
2018-05-19T10:49:18.697Z,20.11
2018-05-19T10:50:18.692Z,20.30
2018-05-19T10:51:18.674Z,20.42
2018-05-19T10:52:18.669Z,20.07
2018-05-19T10:53:18.669Z,19.60
2018-05-19T10:54:18.663Z,19.56
2018-05-19T10:55:18.647Z,19.59
2018-05-19T10:56:18.652Z,19.55
2018-05-19T10:57:18.650Z,19.47
2018-05-19T10:58:18.637Z,19.52
2018-05-19T10:59:18.628Z,19.38
2018-05-19T11:00:18.611Z,19.17
2018-05-19T11:01:18.617Z,19.09
2018-05-19T11:02:18.604Z,18.96
2018-05-19T11:03:18.589Z,18.82
2018-05-19T11:04:18.581Z,18.81
2018-05-19T11:05:18.574Z,18.74
2018-05-19T11:06:18.564Z,18.88
2018-05-19T11:07:18.557Z,18.97
2018-05-19T11:08:18.548Z,19.04
2018-05-19T11:09:18.542Z,18.97
2018-05-19T11:10:18.560Z,19.05
2018-05-19T11:11:18.539Z,19.12
2018-05-19T11:12:18.520Z,18.98
2018-05-19T11:13:18.517Z,18.96
2018-05-19T11:14:18.546Z,18.98
2018-05-19T11:15:18.496Z,18.85
2018-05-19T11:16:18.480Z,18.74
2018-05-19T11:17:18.479Z,18.82
2018-05-19T11:18:18.467Z,18.96
2018-05-19T11:19:18.453Z,19.15
2018-05-19T11:20:18.444Z,19.26
2018-05-19T11:21:18.440Z,19.45
2018-05-19T11:22:18.426Z,19.67
2018-05-19T11:23:18.434Z,19.75
2018-05-19T11:24:18.424Z,19.72
2018-05-19T11:25:18.494Z,19.74
2018-05-19T11:26:18.391Z,19.52
2018-05-19T11:27:18.401Z,19.57
2018-05-19T11:28:18.373Z,19.01
2018-05-19T11:29:18.374Z,18.73
2018-05-19T11:30:18.365Z,19.00
2018-05-19T11:31:18.347Z,19.08
2018-05-19T11:32:18.341Z,19.05
2018-05-19T11:33:18.382Z,18.92
2018-05-19T11:34:18.323Z,18.98
2018-05-19T11:35:18.311Z,19.17
2018-05-19T11:36:18.307Z,19.34
2018-05-19T11:37:18.314Z,19.39
2018-05-19T11:38:18.282Z,19.44
2018-05-19T11:39:18.275Z,19.42
2018-05-19T11:40:18.268Z,19.38
2018-05-19T11:41:18.256Z,19.30
2018-05-19T11:42:18.249Z,19.27
2018-05-19T11:43:18.336Z,19.24
2018-05-19T11:44:18.227Z,19.08
2018-05-19T11:45:18.229Z,18.98
2018-05-19T11:46:18.207Z,19.04
2018-05-19T11:47:18.202Z,19.20
2018-05-19T11:48:18.196Z,19.20
2018-05-19T11:49:18.187Z,18.83
2018-05-19T11:50:18.173Z,18.63
2018-05-19T11:51:18.173Z,18.73
2018-05-19T11:52:18.151Z,18.81
2018-05-19T11:53:18.156Z,18.88
2018-05-19T11:54:18.132Z,18.55
2018-05-19T11:55:18.124Z,18.60
2018-05-19T11:56:18.120Z,18.48
2018-05-19T11:57:18.101Z,18.42
2018-05-19T11:58:18.098Z,18.57
2018-05-19T11:59:18.085Z,18.74
2018-05-19T12:00:18.071Z,18.97
2018-05-19T12:01:18.062Z,19.17
2018-05-19T12:02:18.052Z,19.09
2018-05-19T12:03:18.041Z,18.79
2018-05-19T12:04:18.035Z,18.74
2018-05-19T12:05:18.019Z,18.78
2018-05-19T12:06:18.010Z,18.97
2018-05-19T12:07:18.001Z,18.83
2018-05-19T12:08:17.989Z,18.73
2018-05-19T12:09:17.983Z,18.26
2018-05-19T12:10:17.968Z,18.13
2018-05-19T12:11:17.956Z,17.93
2018-05-19T12:12:18.067Z,17.65
2018-05-19T12:13:17.940Z,17.44
2018-05-19T12:14:17.935Z,17.66
2018-05-19T12:15:17.914Z,17.90
2018-05-19T12:16:17.902Z,18.16
2018-05-19T12:17:17.966Z,18.37
2018-05-19T12:18:17.879Z,18.71
2018-05-19T12:19:17.875Z,18.78
2018-05-19T12:20:17.864Z,18.92
2018-05-19T12:21:17.850Z,18.97
2018-05-19T12:22:17.834Z,18.98
2018-05-19T12:23:17.823Z,18.60
2018-05-19T12:24:17.819Z,18.51
2018-05-19T12:25:17.810Z,18.58
2018-05-19T12:26:17.796Z,18.42
2018-05-19T12:27:17.788Z,18.15
2018-05-19T12:28:17.767Z,18.13
2018-05-19T12:29:17.760Z,18.24
2018-05-19T12:30:17.748Z,18.39
2018-05-19T12:31:17.736Z,18.45
2018-05-19T12:32:17.726Z,18.53
2018-05-19T12:33:17.723Z,18.34
2018-05-19T12:34:17.739Z,18.42
2018-05-19T12:35:17.689Z,18.45
2018-05-19T12:36:17.676Z,18.37
2018-05-19T12:37:17.670Z,18.49
2018-05-19T12:38:17.651Z,18.78
2018-05-19T12:39:17.638Z,19.01
2018-05-19T12:40:17.632Z,19.12
2018-05-19T12:41:17.625Z,19.08
2018-05-19T12:42:17.605Z,19.19
2018-05-19T12:43:17.595Z,19.52
2018-05-19T12:44:17.582Z,19.74
2018-05-19T12:45:17.571Z,19.60
2018-05-19T12:46:17.573Z,19.74
2018-05-19T12:47:17.551Z,19.82
2018-05-19T12:48:17.538Z,20.04
2018-05-19T12:49:17.526Z,20.17
2018-05-19T12:50:17.525Z,19.90
2018-05-19T12:51:17.509Z,19.99
2018-05-19T12:52:17.639Z,19.94